»·PEaware :: N15M L52-L88

N15M :: L52-L88

FLIGHT INFORMATION

Flight Status: Arrived
Operator: Privately registered:
United States
More flights under this callsign
Pilot: Randy H. (31399)
Aircraft: BEECH AIRCRAFT BONANZA
(BE36)
More flights by this aircraft type
Origin: L52 Oceano Co
United States
Destination: L88 New Cuyama
United States
More flights between these airports :: More routes between these airports
Route: L52 SPLNT L88
File this flight plan on PilotEdge
Remarks:
Altitude:
(Current/Filed)
7,000ft
Speed:
(Current/Filed)
150kts
Departed: 25-Oct-20 12:35 PM
Arrived: 25-Oct-20 01:02 PM
Distance/Time
Traveled:
47nm/0:27
Distance/Time
To Go:
Arrived

Flight Plot

Page will automatically refresh every two minutes.

Flight plan parsing failed; only flown route is shown


Map Options




Map Legend


Flown Route
Filed Route
Departure Airport
Arrival Airport
Navaid (VOR, NDB)
Fix

Horizontal Profiles

Position Reports

Time Latitude Longitude Heading Altitude Ground
Speed
25-Oct-20 12:13 35.103811 -120.625100 216 16ft 0kts
25-Oct-20 12:14 35.103811 -120.625100 216 16ft 0kts
25-Oct-20 12:15 35.103811 -120.625100 216 16ft 0kts
25-Oct-20 12:16 35.103811 -120.625100 216 16ft 0kts
25-Oct-20 12:17 35.103811 -120.625100 216 16ft 0kts
25-Oct-20 12:18 35.103811 -120.625100 216 16ft 0kts
25-Oct-20 12:19 35.103811 -120.625100 216 16ft 0kts
25-Oct-20 12:20 35.103811 -120.625100 216 16ft 0kts
25-Oct-20 12:21 35.103811 -120.625100 216 16ft 0kts
25-Oct-20 12:22 35.103811 -120.625100 216 16ft 0kts
25-Oct-20 12:23 35.103893 -120.625026 216 16ft 0kts
25-Oct-20 12:24 35.103828 -120.625025 159 16ft 3kts
25-Oct-20 12:25 35.102446 -120.623140 120 19ft 15kts
25-Oct-20 12:26 35.101338 -120.622648 213 19ft 4kts
25-Oct-20 12:27 35.100032 -120.620465 124 17ft 13kts
25-Oct-20 12:28 35.099911 -120.620236 120 16ft 0kts
25-Oct-20 12:29 35.099428 -120.619448 40 17ft 3kts
25-Oct-20 12:31 35.099524 -120.619465 327 16ft 0kts
25-Oct-20 12:32 35.099524 -120.619465 327 16ft 0kts
25-Oct-20 12:33 35.099620 -120.619484 19 16ft 5kts
25-Oct-20 12:34 35.103212 -120.625474 302 77ft 84kts
25-Oct-20 12:35 35.096583 -120.643267 154 1068ft 114kts
25-Oct-20 12:36 35.084501 -120.604115 84 1866ft 125kts
25-Oct-20 12:37 35.096137 -120.561377 76 2569ft 127kts
25-Oct-20 12:38 35.088389 -120.516806 105 3013ft 139kts
25-Oct-20 12:39 35.081021 -120.471859 97 3306ft 143kts
25-Oct-20 12:40 35.074969 -120.425047 98 3635ft 137kts
25-Oct-20 12:42 35.065308 -120.379461 103 4074ft 139kts
25-Oct-20 12:43 35.056374 -120.332901 107 4406ft 144kts
25-Oct-20 12:44 35.041689 -120.288202 107 4781ft 144kts
25-Oct-20 12:45 35.027863 -120.242303 104 4991ft 147kts
25-Oct-20 12:46 35.037511 -120.199330 42 4898ft 147kts
25-Oct-20 12:47 35.066802 -120.165591 42 5002ft 141kts
25-Oct-20 12:48 35.095323 -120.129226 53 4707ft 156kts
25-Oct-20 12:49 35.098711 -120.079782 105 4716ft 152kts
25-Oct-20 12:50 35.078451 -120.034969 120 5032ft 150kts
25-Oct-20 12:51 35.055497 -119.992202 119 5005ft 156kts
25-Oct-20 12:52 35.035662 -119.947601 117 5217ft 150kts
25-Oct-20 12:53 35.013868 -119.903430 120 5152ft 156kts
25-Oct-20 12:54 34.995863 -119.859064 107 5104ft 143kts
25-Oct-20 12:55 34.983654 -119.816619 98 4682ft 116kts
25-Oct-20 12:56 34.978720 -119.771576 94 4509ft 146kts
25-Oct-20 12:57 34.971457 -119.722522 93 4313ft 149kts
25-Oct-20 12:58 34.965914 -119.676770 148 4013ft 148kts
25-Oct-20 12:58 34.944216 -119.654379 97 3059ft 87kts
25-Oct-20 13:00 34.930006 -119.651443 249 2813ft 80kts
25-Oct-20 13:00 34.935589 -119.674988 298 2344ft 92kts
25-Oct-20 13:02 34.941289 -119.688828 297 2190ft 22kts
25-Oct-20 13:02 34.943516 -119.690861 22 2169ft 10kts
25-Oct-20 13:03 34.943584 -119.690823 22 2168ft 0kts
25-Oct-20 13:04 34.943584 -119.690823 22 2168ft 0kts
25-Oct-20 13:05 34.943584 -119.690823 22 2168ft 0kts
25-Oct-20 13:06 34.943584 -119.690823 22 2168ft 0kts
25-Oct-20 13:07 34.943584 -119.690823 22 2168ft 0kts

Navigation Log

Ident Type
Flight plan parsing failed, navigation log unavailable